Aktuell METAR/TAF ESNU/UME

180050Z AUTO 31003KT 0150 R14/0600N R32/0400N BCFG NCD 07/07 Q1013=

172330Z 1800/1809 VRB02KT CAVOK TEMPO 1800/1804 0300 FG VV002=
Källa: Luftfartsverket (aro.lfv.se)